OINN

Details ICAO OINN (NSH)
Name NOSHAHR
Region Iran
Timezone Asia/Tehran (UTC+4.5)
Plans Departing 10
Arriving 13
Stats Elevation -61 ft / -19 m (AMSL)
Location 36.663837° 51.464417°
Runways 1
Magnetic Variation 5.020° E
Sunrise 2018-05-26 01:21:13 UTC / 2018-05-26 05:51:13 Local
Sunset 2018-05-26 15:44:00 UTC / 2018-05-26 20:14:00 Local
Advertisement - Login to hide

Runways

ID Width Length Bearing (true) Bearing (mag) Surface Threshold Offset Overrun Length
10 115 ft / 35 m 6,173 ft / 1,882 m 108.72° 103.70° Asphalt 0 ft / 0 m 492 ft / 150 m
28 115 ft / 35 m 6,173 ft / 1,882 m 288.73° 283.71° Asphalt 492 ft / 150 m 0 ft / 0 m

Map

Weather


0- 5 10 15 20 25 30 35+ Temperature / ° C

Clouds and Precipitation
Forecast for 2018-05-25 18:00 UTC. Updated 6 hours ago

Ground ~20,000 ft ~40,000 ft Winds

METAR

OINN 252300Z 12004KT 9999 FEW027 BKN180 24/17 Q1005

TAF

Not found

Frequencies

Tower 121.70 MHz TWR
Tower 124.60 MHz TWR
Warning: Do not use this data for real-world aviation or navigation. No guarantee of current accuracy is given.